Mayville, North Dakota
Current Conditions -  °F | °C
As of 5:53 AM on Thursday 23 Oct 2014 (Local Time) from KGFK Reporting Station
Few Clouds Few Clouds  
Wind Chill: 44°   Ceiling: Unl
Heat Index: 47°   Visibility: 10mi
Dew Point: 44°   Wind: 7mph
Humidity: 90%   Direction: 220°SW
Pressure: 29.83"   Gusts: NA
Location:  47.5°N, 97.32°W
Report Text: KGFK 231053Z 22006KT 10SM FEW080 08/07 A2983 RMK AO2 SLP107 T00830067
Loading
Personal Weather Stations






























Interactive Weather Map
Tropical Storm Tracking
New forecast layout! Learn more

10-Day Weather Forecast

Advertisements
Track Severe Weather on mobile